sensor_id;sensor_type;location;lat;lon;timestamp;pressure;altitude;pressure_sealevel;temperature;humidity
5380;BME280;2713;42.680;23.310;2024-03-23T00:55:47;95115.75;;;10.07;50.92
5380;BME280;2713;42.680;23.310;2024-03-23T00:58:13;95105.91;;;10.02;51.60
5380;BME280;2713;42.680;23.310;2024-03-23T01:00:40;95113.13;;;9.92;51.94
5380;BME280;2713;42.680;23.310;2024-03-23T01:03:06;95109.25;;;9.88;51.93
5380;BME280;2713;42.680;23.310;2024-03-23T01:05:32;95108.50;;;10.02;51.35
5380;BME280;2713;42.680;23.310;2024-03-23T01:07:58;95105.78;;;10.18;51.43
5380;BME280;2713;42.680;23.310;2024-03-23T01:10:25;95095.16;;;10.28;50.56
5380;BME280;2713;42.680;23.310;2024-03-23T01:12:52;95093.16;;;10.15;50.65
5380;BME280;2713;42.680;23.310;2024-03-23T01:15:19;95096.38;;;10.17;50.95
5380;BME280;2713;42.680;23.310;2024-03-23T01:17:44;95090.59;;;10.07;51.17
5380;BME280;2713;42.680;23.310;2024-03-23T01:20:11;95101.44;;;10.11;51.32
5380;BME280;2713;42.680;23.310;2024-03-23T01:22:37;95104.72;;;10.05;51.55
5380;BME280;2713;42.680;23.310;2024-03-23T01:25:04;95094.38;;;9.82;51.79
5380;BME280;2713;42.680;23.310;2024-03-23T01:27:30;95103.47;;;9.78;51.78
5380;BME280;2713;42.680;23.310;2024-03-23T01:29:58;95099.53;;;9.59;52.53
5380;BME280;2713;42.680;23.310;2024-03-23T01:32:26;95101.31;;;9.36;53.21
5380;BME280;2713;42.680;23.310;2024-03-23T01:34:53;95103.13;;;9.58;52.36
5380;BME280;2713;42.680;23.310;2024-03-23T01:37:19;95102.56;;;9.48;53.20
5380;BME280;2713;42.680;23.310;2024-03-23T01:39:46;95105.66;;;9.66;52.45
5380;BME280;2713;42.680;23.310;2024-03-23T01:42:12;95101.84;;;9.54;52.74
5380;BME280;2713;42.680;23.310;2024-03-23T01:44:39;95101.16;;;9.38;52.10
5380;BME280;2713;42.680;23.310;2024-03-23T01:47:06;95089.47;;;9.64;51.37
5380;BME280;2713;42.680;23.310;2024-03-23T01:49:34;95101.28;;;9.67;51.00
5380;BME280;2713;42.680;23.310;2024-03-23T01:52:00;95103.41;;;9.63;50.66
5380;BME280;2713;42.680;23.310;2024-03-23T01:54:29;95096.22;;;9.74;50.55
5380;BME280;2713;42.680;23.310;2024-03-23T01:56:56;95104.97;;;9.50;51.56
5380;BME280;2713;42.680;23.310;2024-03-23T01:59:23;95098.91;;;9.57;51.39
5380;BME280;2713;42.680;23.310;2024-03-23T02:01:49;95090.25;;;9.42;51.71
5380;BME280;2713;42.680;23.310;2024-03-23T02:04:18;95097.75;;;9.37;52.52
5380;BME280;2713;42.680;23.310;2024-03-23T02:06:43;95102.41;;;9.42;52.09
5380;BME280;2713;42.680;23.310;2024-03-23T02:09:11;95099.31;;;9.46;52.17
5380;BME280;2713;42.680;23.310;2024-03-23T02:11:37;95107.06;;;9.54;51.78
5380;BME280;2713;42.680;23.310;2024-03-23T02:14:03;95098.84;;;9.43;51.98
5380;BME280;2713;42.680;23.310;2024-03-23T02:16:29;95084.19;;;9.27;52.12
5380;BME280;2713;42.680;23.310;2024-03-23T02:18:56;95098.56;;;9.38;52.91
5380;BME280;2713;42.680;23.310;2024-03-23T02:21:23;95103.09;;;9.36;52.96
5380;BME280;2713;42.680;23.310;2024-03-23T02:23:51;95103.94;;;9.28;52.98
5380;BME280;2713;42.680;23.310;2024-03-23T02:26:17;95109.13;;;9.28;52.76
5380;BME280;2713;42.680;23.310;2024-03-23T02:28:44;95112.25;;;9.24;53.09
5380;BME280;2713;42.680;23.310;2024-03-23T02:31:10;95114.00;;;9.31;52.57
5380;BME280;2713;42.680;23.310;2024-03-23T02:34:03;95113.94;;;9.39;52.29
5380;BME280;2713;42.680;23.310;2024-03-23T02:36:30;95112.47;;;9.45;52.16
5380;BME280;2713;42.680;23.310;2024-03-23T02:38:58;95111.34;;;9.39;52.78
5380;BME280;2713;42.680;23.310;2024-03-23T02:41:24;95106.06;;;9.25;52.38
5380;BME280;2713;42.680;23.310;2024-03-23T02:43:50;95109.19;;;9.20;53.22
5380;BME280;2713;42.680;23.310;2024-03-23T02:46:17;95104.03;;;9.12;53.09
5380;BME280;2713;42.680;23.310;2024-03-23T02:48:43;95108.72;;;9.16;53.10
5380;BME280;2713;42.680;23.310;2024-03-23T02:51:10;95097.88;;;9.13;53.22
5380;BME280;2713;42.680;23.310;2024-03-23T02:53:36;95098.94;;;8.88;53.29
5380;BME280;2713;42.680;23.310;2024-03-23T02:56:04;95091.47;;;8.93;53.09
5380;BME280;2713;42.680;23.310;2024-03-23T02:58:30;95093.38;;;9.07;53.35
5380;BME280;2713;42.680;23.310;2024-03-23T03:00:57;95104.97;;;9.19;52.81
5380;BME280;2713;42.680;23.310;2024-03-23T03:03:23;95099.47;;;8.83;53.66
5380;BME280;2713;42.680;23.310;2024-03-23T03:05:55;95100.50;;;9.05;53.72
5380;BME280;2713;42.680;23.310;2024-03-23T03:08:20;95100.91;;;8.78;54.28
5380;BME280;2713;42.680;23.310;2024-03-23T03:10:47;95091.69;;;8.83;53.63
5380;BME280;2713;42.680;23.310;2024-03-23T03:13:14;95102.06;;;8.67;54.17
5380;BME280;2713;42.680;23.310;2024-03-23T03:15:42;95095.44;;;8.73;53.85
5380;BME280;2713;42.680;23.310;2024-03-23T03:18:08;95102.53;;;8.79;54.54
5380;BME280;2713;42.680;23.310;2024-03-23T03:20:37;95101.38;;;8.89;54.29
5380;BME280;2713;42.680;23.310;2024-03-23T03:23:03;95103.00;;;8.82;53.93
5380;BME280;2713;42.680;23.310;2024-03-23T03:25:30;95109.03;;;8.75;54.14
5380;BME280;2713;42.680;23.310;2024-03-23T03:27:56;95115.06;;;8.59;54.51
5380;BME280;2713;42.680;23.310;2024-03-23T03:30:24;95099.63;;;8.74;54.18
5380;BME280;2713;42.680;23.310;2024-03-23T03:32:52;95103.91;;;8.58;54.93
5380;BME280;2713;42.680;23.310;2024-03-23T03:35:19;95107.72;;;8.71;55.00
5380;BME280;2713;42.680;23.310;2024-03-23T03:37:45;95106.81;;;8.47;55.66
5380;BME280;2713;42.680;23.310;2024-03-23T03:40:12;95106.81;;;8.47;54.76
5380;BME280;2713;42.680;23.310;2024-03-23T03:42:40;95104.88;;;8.49;55.34
5380;BME280;2713;42.680;23.310;2024-03-23T03:45:07;95105.81;;;8.64;55.25
5380;BME280;2713;42.680;23.310;2024-03-23T03:47:34;95096.72;;;8.77;54.45
5380;BME280;2713;42.680;23.310;2024-03-23T03:50:01;95105.66;;;8.66;54.33
5380;BME280;2713;42.680;23.310;2024-03-23T03:52:27;95105.94;;;8.79;54.67
5380;BME280;2713;42.680;23.310;2024-03-23T03:55:01;95106.75;;;8.80;54.89
5380;BME280;2713;42.680;23.310;2024-03-23T03:57:27;95108.56;;;8.71;54.39
5380;BME280;2713;42.680;23.310;2024-03-23T03:59:54;95104.22;;;8.55;55.16
5380;BME280;2713;42.680;23.310;2024-03-23T04:02:20;95103.75;;;8.52;55.17
5380;BME280;2713;42.680;23.310;2024-03-23T04:04:48;95116.53;;;8.05;56.22
5380;BME280;2713;42.680;23.310;2024-03-23T04:07:14;95109.25;;;8.08;56.23
5380;BME280;2713;42.680;23.310;2024-03-23T04:09:40;95103.63;;;8.29;55.82
5380;BME280;2713;42.680;23.310;2024-03-23T04:12:06;95113.31;;;8.19;56.29
5380;BME280;2713;42.680;23.310;2024-03-23T04:14:33;95102.31;;;8.25;56.55
5380;BME280;2713;42.680;23.310;2024-03-23T04:16:59;95116.56;;;8.21;56.69
5380;BME280;2713;42.680;23.310;2024-03-23T04:19:26;95123.84;;;8.09;56.71
5380;BME280;2713;42.680;23.310;2024-03-23T04:21:53;95115.28;;;8.01;56.32
5380;BME280;2713;42.680;23.310;2024-03-23T04:24:19;95122.69;;;8.12;56.07
5380;BME280;2713;42.680;23.310;2024-03-23T04:26:47;95117.66;;;8.18;56.32
5380;BME280;2713;42.680;23.310;2024-03-23T04:29:14;95121.75;;;8.29;55.11
5380;BME280;2713;42.680;23.310;2024-03-23T04:31:40;95121.25;;;8.18;55.44
5380;BME280;2713;42.680;23.310;2024-03-23T04:34:07;95123.69;;;8.03;56.02
5380;BME280;2713;42.680;23.310;2024-03-23T04:36:33;95125.28;;;8.20;54.95
5380;BME280;2713;42.680;23.310;2024-03-23T04:39:01;95129.81;;;8.10;55.02
5380;BME280;2713;42.680;23.310;2024-03-23T04:41:28;95120.44;;;8.17;55.53
5380;BME280;2713;42.680;23.310;2024-03-23T04:43:55;95128.22;;;8.01;55.44
5380;BME280;2713;42.680;23.310;2024-03-23T04:46:22;95123.69;;;8.11;55.19
5380;BME280;2713;42.680;23.310;2024-03-23T04:48:47;95133.72;;;8.38;54.95
5380;BME280;2713;42.680;23.310;2024-03-23T04:51:20;95120.88;;;8.53;54.60
5380;BME280;2713;42.680;23.310;2024-03-23T04:53:47;95122.03;;;8.58;54.31
5380;BME280;2713;42.680;23.310;2024-03-23T04:56:16;95143.19;;;8.70;53.91
5380;BME280;2713;42.680;23.310;2024-03-23T04:58:43;95136.44;;;8.53;54.77
5380;BME280;2713;42.680;23.310;2024-03-23T05:01:10;95137.28;;;8.37;54.69
5380;BME280;2713;42.680;23.310;2024-03-23T05:03:37;95145.00;;;8.61;54.15
5380;BME280;2713;42.680;23.310;2024-03-23T05:06:03;95129.50;;;8.45;54.65
5380;BME280;2713;42.680;23.310;2024-03-23T05:08:31;95132.59;;;8.49;53.83
5380;BME280;2713;42.680;23.310;2024-03-23T05:10:57;95132.41;;;8.18;54.91
5380;BME280;2713;42.680;23.310;2024-03-23T05:13:25;95134.66;;;8.05;56.06
5380;BME280;2713;42.680;23.310;2024-03-23T05:15:52;95134.81;;;7.71;56.49
5380;BME280;2713;42.680;23.310;2024-03-23T05:18:19;95133.50;;;7.59;57.51
5380;BME280;2713;42.680;23.310;2024-03-23T05:20:45;95129.66;;;7.79;57.38
5380;BME280;2713;42.680;23.310;2024-03-23T05:23:12;95127.84;;;7.55;57.84
5380;BME280;2713;42.680;23.310;2024-03-23T05:25:37;95104.41;;;7.65;57.17
5380;BME280;2713;42.680;23.310;2024-03-23T05:28:04;95117.84;;;7.69;57.53
5380;BME280;2713;42.680;23.310;2024-03-23T05:30:32;95126.44;;;7.93;57.14
5380;BME280;2713;42.680;23.310;2024-03-23T05:32:59;95124.78;;;7.84;56.34
5380;BME280;2713;42.680;23.310;2024-03-23T05:35:24;95126.59;;;8.00;56.65
5380;BME280;2713;42.680;23.310;2024-03-23T05:37:51;95124.31;;;8.05;56.66
5380;BME280;2713;42.680;23.310;2024-03-23T05:40:17;95129.81;;;8.26;55.88
5380;BME280;2713;42.680;23.310;2024-03-23T05:42:44;95128.84;;;8.51;55.11
5380;BME280;2713;42.680;23.310;2024-03-23T05:45:10;95130.91;;;8.64;54.50
5380;BME280;2713;42.680;23.310;2024-03-23T05:47:39;95136.63;;;8.51;54.00
5380;BME280;2713;42.680;23.310;2024-03-23T05:50:05;95124.16;;;8.55;54.07
5380;BME280;2713;42.680;23.310;2024-03-23T05:52:32;95125.41;;;8.67;54.78
5380;BME280;2713;42.680;23.310;2024-03-23T05:54:58;95125.66;;;8.88;54.11
5380;BME280;2713;42.680;23.310;2024-03-23T05:57:24;95131.69;;;8.81;53.92
5380;BME280;2713;42.680;23.310;2024-03-23T05:59:51;95130.63;;;8.51;54.50
5380;BME280;2713;42.680;23.310;2024-03-23T06:02:18;95127.50;;;8.63;53.94
5380;BME280;2713;42.680;23.310;2024-03-23T06:04:46;95128.81;;;8.68;54.57
5380;BME280;2713;42.680;23.310;2024-03-23T06:07:13;95124.38;;;8.84;54.15
5380;BME280;2713;42.680;23.310;2024-03-23T06:09:40;95114.47;;;8.88;53.79
5380;BME280;2713;42.680;23.310;2024-03-23T06:12:06;95124.50;;;8.99;53.80
5380;BME280;2713;42.680;23.310;2024-03-23T06:14:33;95111.31;;;8.70;54.51
5380;BME280;2713;42.680;23.310;2024-03-23T06:16:59;95113.38;;;8.82;53.94
5380;BME280;2713;42.680;23.310;2024-03-23T06:19:27;95121.22;;;9.05;53.85
5380;BME280;2713;42.680;23.310;2024-03-23T06:21:54;95088.59;;;9.18;52.43
5380;BME280;2713;42.680;23.310;2024-03-23T06:24:21;95118.81;;;10.10;50.91
5380;BME280;2713;42.680;23.310;2024-03-23T06:26:47;95110.72;;;10.95;48.80
5380;BME280;2713;42.680;23.310;2024-03-23T06:29:14;95113.84;;;11.55;47.23
5380;BME280;2713;42.680;23.310;2024-03-23T06:31:39;95109.56;;;12.05;45.82
5380;BME280;2713;42.680;23.310;2024-03-23T06:34:06;95110.06;;;12.36;44.90
5380;BME280;2713;42.680;23.310;2024-03-23T06:36:32;95111.31;;;12.75;44.58
5380;BME280;2713;42.680;23.310;2024-03-23T06:39:00;95105.41;;;12.94;43.90
5380;BME280;2713;42.680;23.310;2024-03-23T06:41:26;95105.72;;;13.12;43.29
5380;BME280;2713;42.680;23.310;2024-03-23T06:43:53;95104.31;;;13.09;43.16
5380;BME280;2713;42.680;23.310;2024-03-23T06:46:19;95105.66;;;13.40;42.56
5380;BME280;2713;42.680;23.310;2024-03-23T06:48:46;95101.56;;;13.78;41.35
5380;BME280;2713;42.680;23.310;2024-03-23T06:51:12;95112.44;;;13.95;41.10
5380;BME280;2713;42.680;23.310;2024-03-23T06:53:39;95103.44;;;14.23;40.48
5380;BME280;2713;42.680;23.310;2024-03-23T06:56:06;95106.88;;;14.50;40.35
5380;BME280;2713;42.680;23.310;2024-03-23T06:58:33;95101.84;;;14.62;39.44
5380;BME280;2713;42.680;23.310;2024-03-23T07:00:59;95103.78;;;15.06;38.90
5380;BME280;2713;42.680;23.310;2024-03-23T07:03:26;95102.19;;;14.98;39.45
5380;BME280;2713;42.680;23.310;2024-03-23T07:05:51;95102.44;;;14.64;39.31
5380;BME280;2713;42.680;23.310;2024-03-23T07:08:18;95097.94;;;14.97;38.76
5380;BME280;2713;42.680;23.310;2024-03-23T07:10:47;95093.31;;;15.06;38.64
5380;BME280;2713;42.680;23.310;2024-03-23T07:13:16;95095.66;;;15.27;37.88
5380;BME280;2713;42.680;23.310;2024-03-23T07:15:42;95087.75;;;15.40;37.31
5380;BME280;2713;42.680;23.310;2024-03-23T07:18:09;95088.72;;;15.46;37.86
5380;BME280;2713;42.680;23.310;2024-03-23T07:20:35;95092.25;;;15.20;37.85
5380;BME280;2713;42.680;23.310;2024-03-23T07:23:02;95083.28;;;15.47;37.28
5380;BME280;2713;42.680;23.310;2024-03-23T07:25:28;95073.06;;;15.77;36.68
5380;BME280;2713;42.680;23.310;2024-03-23T07:27:55;95078.50;;;15.82;36.85
5380;BME280;2713;42.680;23.310;2024-03-23T07:30:22;95072.03;;;15.85;36.30
5380;BME280;2713;42.680;23.310;2024-03-23T07:32:49;95061.78;;;16.08;36.23
5380;BME280;2713;42.680;23.310;2024-03-23T07:35:15;95061.44;;;16.29;35.91
5380;BME280;2713;42.680;23.310;2024-03-23T07:37:42;95062.84;;;16.56;35.53
5380;BME280;2713;42.680;23.310;2024-03-23T07:40:09;95066.72;;;16.47;35.53
5380;BME280;2713;42.680;23.310;2024-03-23T07:42:37;95069.31;;;16.47;35.19
5380;BME280;2713;42.680;23.310;2024-03-23T07:45:03;95065.00;;;16.35;36.04
5380;BME280;2713;42.680;23.310;2024-03-23T07:47:32;95056.59;;;16.51;35.14
5380;BME280;2713;42.680;23.310;2024-03-23T07:49:58;95057.31;;;16.40;35.44
5380;BME280;2713;42.680;23.310;2024-03-23T07:52:28;95054.69;;;16.83;34.72
5380;BME280;2713;42.680;23.310;2024-03-23T07:54:54;95057.03;;;16.72;34.82
5380;BME280;2713;42.680;23.310;2024-03-23T07:57:20;95060.03;;;16.94;34.52
5380;BME280;2713;42.680;23.310;2024-03-23T07:59:46;95059.25;;;16.94;34.68
5380;BME280;2713;42.680;23.310;2024-03-23T08:02:13;95048.56;;;16.89;34.79
5380;BME280;2713;42.680;23.310;2024-03-23T08:04:40;95053.19;;;16.50;34.78
5380;BME280;2713;42.680;23.310;2024-03-23T08:07:07;95054.44;;;15.92;35.72
5380;BME280;2713;42.680;23.310;2024-03-23T08:09:33;95052.72;;;16.04;35.45
5380;BME280;2713;42.680;23.310;2024-03-23T08:12:00;95039.47;;;15.99;35.97
5380;BME280;2713;42.680;23.310;2024-03-23T08:14:26;95057.56;;;16.07;35.81
5380;BME280;2713;42.680;23.310;2024-03-23T08:16:54;95046.31;;;16.49;35.21
5380;BME280;2713;42.680;23.310;2024-03-23T08:19:20;95035.09;;;17.03;34.22
5380;BME280;2713;42.680;23.310;2024-03-23T08:21:48;95042.19;;;17.51;33.42
5380;BME280;2713;42.680;23.310;2024-03-23T08:24:15;95046.78;;;17.73;33.01
5380;BME280;2713;42.680;23.310;2024-03-23T08:26:42;95041.91;;;17.89;32.90
5380;BME280;2713;42.680;23.310;2024-03-23T08:29:08;95041.25;;;18.05;32.38
5380;BME280;2713;42.680;23.310;2024-03-23T08:31:35;95032.06;;;17.84;32.52
5380;BME280;2713;42.680;23.310;2024-03-23T08:34:00;95031.34;;;17.77;32.72
5380;BME280;2713;42.680;23.310;2024-03-23T08:36:27;95029.25;;;18.09;32.29
5380;BME280;2713;42.680;23.310;2024-03-23T08:38:55;95020.38;;;17.80;32.58
5380;BME280;2713;42.680;23.310;2024-03-23T08:41:22;95032.44;;;17.99;32.68
5380;BME280;2713;42.680;23.310;2024-03-23T08:43:48;95013.41;;;18.39;32.28
5380;BME280;2713;42.680;23.310;2024-03-23T08:46:16;95013.25;;;18.22;32.06
5380;BME280;2713;42.680;23.310;2024-03-23T08:48:42;95015.03;;;18.51;32.02
5380;BME280;2713;42.680;23.310;2024-03-23T08:51:11;95002.72;;;18.10;32.50
5380;BME280;2713;42.680;23.310;2024-03-23T08:53:38;95002.28;;;18.37;32.28
5380;BME280;2713;42.680;23.310;2024-03-23T08:56:07;94998.97;;;18.18;32.07
5380;BME280;2713;42.680;23.310;2024-03-23T08:58:34;95001.59;;;18.41;31.86
5380;BME280;2713;42.680;23.310;2024-03-23T09:01:03;94999.09;;;18.81;31.59
5380;BME280;2713;42.680;23.310;2024-03-23T09:03:29;94996.91;;;18.78;31.40
5380;BME280;2713;42.680;23.310;2024-03-23T09:05:56;94977.59;;;18.61;31.06
5380;BME280;2713;42.680;23.310;2024-03-23T09:08:23;94998.41;;;17.45;32.81
5380;BME280;2713;42.680;23.310;2024-03-23T09:10:51;94982.63;;;17.74;32.42
5380;BME280;2713;42.680;23.310;2024-03-23T09:13:18;94977.88;;;17.95;32.28
5380;BME280;2713;42.680;23.310;2024-03-23T09:15:47;94977.78;;;18.13;31.87
5380;BME280;2713;42.680;23.310;2024-03-23T09:18:13;94973.69;;;18.17;31.96
5380;BME280;2713;42.680;23.310;2024-03-23T09:20:40;94958.13;;;18.39;31.89
5380;BME280;2713;42.680;23.310;2024-03-23T09:23:05;94957.53;;;18.48;31.78
5380;BME280;2713;42.680;23.310;2024-03-23T09:25:36;94953.16;;;18.77;31.83
5380;BME280;2713;42.680;23.310;2024-03-23T09:28:02;94951.38;;;18.54;32.12
5380;BME280;2713;42.680;23.310;2024-03-23T09:30:30;94949.22;;;18.63;31.58
5380;BME280;2713;42.680;23.310;2024-03-23T09:32:56;94942.25;;;18.97;31.58
5380;BME280;2713;42.680;23.310;2024-03-23T09:35:23;94932.34;;;18.76;31.80
5380;BME280;2713;42.680;23.310;2024-03-23T09:37:49;94926.66;;;19.07;31.19
5380;BME280;2713;42.680;23.310;2024-03-23T09:40:16;94912.88;;;19.05;31.35
5380;BME280;2713;42.680;23.310;2024-03-23T09:42:49;94929.56;;;19.22;31.10
5380;BME280;2713;42.680;23.310;2024-03-23T09:45:19;94923.44;;;19.33;30.77
5380;BME280;2713;42.680;23.310;2024-03-23T09:47:47;94915.63;;;19.38;30.67
5380;BME280;2713;42.680;23.310;2024-03-23T09:50:16;94918.38;;;19.32;30.74
5380;BME280;2713;42.680;23.310;2024-03-23T09:52:42;94910.56;;;19.48;30.37
5380;BME280;2713;42.680;23.310;2024-03-23T09:55:09;94903.09;;;19.45;30.67
5380;BME280;2713;42.680;23.310;2024-03-23T09:57:37;94901.31;;;19.96;31.90
5380;BME280;2713;42.680;23.310;2024-03-23T10:00:05;94890.06;;;20.22;33.34
5380;BME280;2713;42.680;23.310;2024-03-23T10:02:33;94895.47;;;19.60;30.69
5380;BME280;2713;42.680;23.310;2024-03-23T10:05:01;94893.53;;;19.56;30.53
5380;BME280;2713;42.680;23.310;2024-03-23T10:07:28;94888.63;;;20.14;34.58
5380;BME280;2713;42.680;23.310;2024-03-23T10:09:55;94887.44;;;20.22;30.18
5380;BME280;2713;42.680;23.310;2024-03-23T10:12:22;94869.16;;;19.99;30.21
5380;BME280;2713;42.680;23.310;2024-03-23T10:14:50;94877.81;;;19.78;30.97
5380;BME280;2713;42.680;23.310;2024-03-23T10:17:17;94869.09;;;19.32;30.55
5380;BME280;2713;42.680;23.310;2024-03-23T10:19:44;94866.63;;;19.70;30.66
5380;BME280;2713;42.680;23.310;2024-03-23T10:22:13;94861.00;;;19.84;30.93
5380;BME280;2713;42.680;23.310;2024-03-23T10:24:41;94857.47;;;20.11;30.89
5380;BME280;2713;42.680;23.310;2024-03-23T10:27:07;94857.50;;;19.95;29.95
5380;BME280;2713;42.680;23.310;2024-03-23T10:29:33;94853.47;;;20.09;29.70
5380;BME280;2713;42.680;23.310;2024-03-23T10:32:09;94836.25;;;19.68;29.00
5380;BME280;2713;42.680;23.310;2024-03-23T10:34:36;94848.88;;;19.66;30.37
5380;BME280;2713;42.680;23.310;2024-03-23T10:37:03;94839.28;;;20.15;30.27
5380;BME280;2713;42.680;23.310;2024-03-23T10:39:33;94831.00;;;20.06;30.19
5380;BME280;2713;42.680;23.310;2024-03-23T10:42:02;94824.88;;;20.61;33.90
5380;BME280;2713;42.680;23.310;2024-03-23T10:44:30;94814.66;;;20.96;30.09
5380;BME280;2713;42.680;23.310;2024-03-23T10:46:57;94816.53;;;20.96;28.19
5380;BME280;2713;42.680;23.310;2024-03-23T10:49:28;94793.47;;;20.64;28.02
5380;BME280;2713;42.680;23.310;2024-03-23T10:51:57;94800.09;;;20.67;28.81
5380;BME280;2713;42.680;23.310;2024-03-23T10:54:24;94794.13;;;20.55;28.29
5380;BME280;2713;42.680;23.310;2024-03-23T10:56:55;94793.00;;;20.72;28.75
5380;BME280;2713;42.680;23.310;2024-03-23T10:59:24;94786.38;;;20.97;28.58
5380;BME280;2713;42.680;23.310;2024-03-23T11:01:54;94786.69;;;21.00;28.03
5380;BME280;2713;42.680;23.310;2024-03-23T11:04:39;94769.44;;;20.66;27.68
5380;BME280;2713;42.680;23.310;2024-03-23T11:07:28;94765.34;;;20.10;29.88
5380;BME280;2713;42.680;23.310;2024-03-23T11:09:55;94758.56;;;19.76;29.23
5380;BME280;2713;42.680;23.310;2024-03-23T11:12:27;94757.38;;;19.66;30.00
5380;BME280;2713;42.680;23.310;2024-03-23T11:15:00;94747.22;;;19.97;33.45
5380;BME280;2713;42.680;23.310;2024-03-23T11:17:27;94752.16;;;20.32;31.87
5380;BME280;2713;42.680;23.310;2024-03-23T11:19:54;94738.50;;;20.61;32.43
5380;BME280;2713;42.680;23.310;2024-03-23T11:22:41;94733.81;;;20.68;29.48
5380;BME280;2713;42.680;23.310;2024-03-23T11:25:15;94731.16;;;20.20;28.00
5380;BME280;2713;42.680;23.310;2024-03-23T11:27:44;94727.03;;;19.86;28.16
5380;BME280;2713;42.680;23.310;2024-03-23T11:30:17;94726.59;;;19.72;30.57
5380;BME280;2713;42.680;23.310;2024-03-23T11:32:44;94719.38;;;19.84;31.28
5380;BME280;2713;42.680;23.310;2024-03-23T11:35:25;94717.34;;;20.13;33.02
5380;BME280;2713;42.680;23.310;2024-03-23T11:38:02;94710.22;;;20.62;33.24
5380;BME280;2713;42.680;23.310;2024-03-23T11:40:29;94700.94;;;20.86;32.23
5380;BME280;2713;42.680;23.310;2024-03-23T11:42:58;94696.84;;;20.68;28.05
5380;BME280;2713;42.680;23.310;2024-03-23T11:45:25;94696.84;;;20.20;28.10
5380;BME280;2713;42.680;23.310;2024-03-23T11:48:05;94685.81;;;20.01;28.87
5380;BME280;2713;42.680;23.310;2024-03-23T11:50:32;94685.00;;;20.01;28.99
5380;BME280;2713;42.680;23.310;2024-03-23T11:53:13;94672.44;;;19.86;28.57
5380;BME280;2713;42.680;23.310;2024-03-23T11:55:47;94677.00;;;19.69;28.77
5380;BME280;2713;42.680;23.310;2024-03-23T11:58:16;94666.72;;;20.16;32.97
5380;BME280;2713;42.680;23.310;2024-03-23T12:00:49;94659.19;;;20.03;28.70
5380;BME280;2713;42.680;23.310;2024-03-23T12:03:16;94654.34;;;19.95;28.48
5380;BME280;2713;42.680;23.310;2024-03-23T12:05:48;94652.69;;;19.89;28.58
5380;BME280;2713;42.680;23.310;2024-03-23T12:08:19;94651.69;;;19.73;28.63
5380;BME280;2713;42.680;23.310;2024-03-23T12:10:48;94641.91;;;19.68;28.58
5380;BME280;2713;42.680;23.310;2024-03-23T12:13:17;94632.69;;;19.93;28.52
5380;BME280;2713;42.680;23.310;2024-03-23T12:15:45;94632.31;;;19.62;28.62
5380;BME280;2713;42.680;23.310;2024-03-23T12:18:11;94628.22;;;19.33;28.54
5380;BME280;2713;42.680;23.310;2024-03-23T12:20:39;94623.75;;;18.95;28.78
5380;BME280;2713;42.680;23.310;2024-03-23T12:23:06;94619.19;;;19.07;28.52
5380;BME280;2713;42.680;23.310;2024-03-23T12:25:34;94615.59;;;19.35;28.79
5380;BME280;2713;42.680;23.310;2024-03-23T12:28:00;94617.19;;;19.74;29.29
5380;BME280;2713;42.680;23.310;2024-03-23T12:30:33;94608.66;;;19.46;28.30
5380;BME280;2713;42.680;23.310;2024-03-23T12:33:00;94610.19;;;19.25;28.52
5380;BME280;2713;42.680;23.310;2024-03-23T12:35:27;94583.31;;;18.68;28.78
5380;BME280;2713;42.680;23.310;2024-03-23T12:37:53;94598.91;;;18.91;28.92
5380;BME280;2713;42.680;23.310;2024-03-23T12:40:20;94595.53;;;19.12;31.53
5380;BME280;2713;42.680;23.310;2024-03-23T12:42:45;94590.34;;;19.17;28.88
5380;BME280;2713;42.680;23.310;2024-03-23T12:45:12;94590.50;;;19.49;29.05
5380;BME280;2713;42.680;23.310;2024-03-23T12:47:40;94599.53;;;19.37;27.62
5380;BME280;2713;42.680;23.310;2024-03-23T12:50:07;94587.59;;;19.07;27.49
5380;BME280;2713;42.680;23.310;2024-03-23T12:52:33;94585.25;;;19.33;29.95
5380;BME280;2713;42.680;23.310;2024-03-23T12:55:00;94573.41;;;19.52;25.12
5380;BME280;2713;42.680;23.310;2024-03-23T12:57:26;94555.50;;;19.54;24.83
5380;BME280;2713;42.680;23.310;2024-03-23T12:59:53;94561.59;;;19.81;26.49
5380;BME280;2713;42.680;23.310;2024-03-23T13:02:19;94559.72;;;20.03;25.74
5380;BME280;2713;42.680;23.310;2024-03-23T13:04:49;94555.88;;;20.16;27.72
5380;BME280;2713;42.680;23.310;2024-03-23T13:07:16;94560.66;;;20.24;25.44
5380;BME280;2713;42.680;23.310;2024-03-23T13:09:43;94555.41;;;19.97;24.84
5380;BME280;2713;42.680;23.310;2024-03-23T13:12:09;94553.53;;;20.19;29.63
5380;BME280;2713;42.680;23.310;2024-03-23T13:14:37;94550.72;;;20.31;26.40
5380;BME280;2713;42.680;23.310;2024-03-23T13:17:04;94540.44;;;20.30;24.43
5380;BME280;2713;42.680;23.310;2024-03-23T13:19:31;94543.59;;;20.00;23.07
5380;BME280;2713;42.680;23.310;2024-03-23T13:21:59;94515.59;;;19.99;23.68
5380;BME280;2713;42.680;23.310;2024-03-23T13:24:26;94530.19;;;20.38;26.04
5380;BME280;2713;42.680;23.310;2024-03-23T13:26:53;94534.94;;;20.68;25.39
5380;BME280;2713;42.680;23.310;2024-03-23T13:29:20;94532.50;;;20.61;24.23
5380;BME280;2713;42.680;23.310;2024-03-23T13:31:48;94524.50;;;20.51;23.00
5380;BME280;2713;42.680;23.310;2024-03-23T13:34:16;94532.63;;;20.13;23.08
5380;BME280;2713;42.680;23.310;2024-03-23T13:36:42;94528.84;;;20.31;23.15
5380;BME280;2713;42.680;23.310;2024-03-23T13:39:10;94519.63;;;20.33;22.99
5380;BME280;2713;42.680;23.310;2024-03-23T13:41:38;94509.16;;;20.48;25.24
5380;BME280;2713;42.680;23.310;2024-03-23T13:44:05;94511.84;;;20.58;22.88
5380;BME280;2713;42.680;23.310;2024-03-23T13:46:31;94512.94;;;20.57;24.39
5380;BME280;2713;42.680;23.310;2024-03-23T13:48:58;94510.09;;;20.69;25.30
5380;BME280;2713;42.680;23.310;2024-03-23T13:51:25;94496.47;;;20.87;23.49
5380;BME280;2713;42.680;23.310;2024-03-23T13:53:53;94488.88;;;20.59;24.11
5380;BME280;2713;42.680;23.310;2024-03-23T13:56:21;94483.31;;;20.55;26.21
5380;BME280;2713;42.680;23.310;2024-03-23T13:58:48;94495.88;;;20.80;25.26
5380;BME280;2713;42.680;23.310;2024-03-23T14:01:14;94488.78;;;20.86;26.81
5380;BME280;2713;42.680;23.310;2024-03-23T14:03:41;94492.56;;;20.53;22.64
5380;BME280;2713;42.680;23.310;2024-03-23T14:06:08;94485.03;;;20.77;25.77
5380;BME280;2713;42.680;23.310;2024-03-23T14:08:35;94483.28;;;20.92;25.23
5380;BME280;2713;42.680;23.310;2024-03-23T14:11:02;94474.50;;;20.82;22.71